Time;durP1;ratioP1;P1;durP2;ratioP2;P2;SDS_P1;SDS_P2;PMS_P1;PMS_P2;Temp;Humidity;BMP_temperature;BMP_pressure;BME280_temperature;BME280_humidity;BME280_pressure;Samples;Min_cycle;Max_cycle;Signal;HPM_P1;HPM_P2
2022/12/03 00:01:53;;;;;;;44.45;7.72;;;;;;;;;;5038943;28;20445;-50
2022/12/03 00:04:20;;;;;;;45.78;6.78;;;;;;;;;;5045562;28;20021;-51
2022/12/03 00:06:47;;;;;;;54.08;6.90;;;;;;;;;;5040485;28;20072;-50
2022/12/03 00:09:14;;;;;;;48.00;6.70;;;;;;;;;;5041115;28;20021;-54
2022/12/03 00:11:41;;;;;;;58.38;7.88;;;;;;;;;;5042138;28;20043;-54
2022/12/03 00:14:08;;;;;;;50.25;7.00;;;;;;;;;;5040407;28;20053;-48
2022/12/03 00:16:35;;;;;;;51.97;7.47;;;;;;;;;;5039333;28;20017;-53
2022/12/03 00:19:02;;;;;;;44.25;6.82;;;;;;;;;;5038598;28;20025;-51
2022/12/03 00:21:29;;;;;;;48.42;7.55;;;;;;;;;;5031336;28;20116;-49
2022/12/03 00:23:56;;;;;;;41.95;6.38;;;;;;;;;;5031683;28;20431;-51
2022/12/03 00:26:23;;;;;;;54.55;7.28;;;;;;;;;;5031220;28;20072;-50
2022/12/03 00:28:50;;;;;;;45.95;7.40;;;;;;;;;;5031553;28;20091;-53
2022/12/03 00:31:17;;;;;;;55.47;7.40;;;;;;;;;;5031287;28;20030;-51
2022/12/03 00:33:44;;;;;;;55.38;7.65;;;;;;;;;;5031184;28;20036;-49
2022/12/03 00:36:11;;;;;;;43.28;7.05;;;;;;;;;;5031366;28;20029;-47
2022/12/03 00:38:38;;;;;;;49.15;6.88;;;;;;;;;;5031165;28;20027;-47
2022/12/03 00:41:05;;;;;;;50.03;7.28;;;;;;;;;;5031170;28;20017;-50
2022/12/03 00:43:32;;;;;;;55.53;7.57;;;;;;;;;;5036854;28;20025;-48
2022/12/03 00:45:59;;;;;;;42.78;6.22;;;;;;;;;;5041023;28;20036;-46
2022/12/03 00:48:26;;;;;;;55.65;7.30;;;;;;;;;;5040891;28;20029;-50
2022/12/03 00:50:53;;;;;;;45.20;6.72;;;;;;;;;;5039271;28;20036;-48
2022/12/03 00:53:22;;;;;;;55.58;7.18;;;;;;;;;;5043108;28;20479;-48
2022/12/03 00:55:50;;;;;;;41.03;7.30;;;;;;;;;;5045210;28;20115;-53
2022/12/03 00:58:18;;;;;;;42.22;7.35;;;;;;;;;;5041938;28;20041;-56
2022/12/03 01:00:45;;;;;;;43.53;6.82;;;;;;;;;;5043908;28;20027;-50
2022/12/03 01:03:12;;;;;;;35.88;7.13;;;;;;;;;;5045235;28;20037;-50
2022/12/03 01:05:39;;;;;;;41.15;7.07;;;;;;;;;;5042148;28;20084;-52
2022/12/03 01:08:06;;;;;;;38.30;7.20;;;;;;;;;;5044009;28;20037;-48
2022/12/03 01:10:33;;;;;;;37.03;6.53;;;;;;;;;;5045528;28;20082;-50
2022/12/03 01:13:00;;;;;;;36.90;6.95;;;;;;;;;;5044147;28;20076;-49
2022/12/03 01:15:28;;;;;;;42.35;7.15;;;;;;;;;;5043874;28;20379;-48
2022/12/03 01:17:55;;;;;;;34.33;7.15;;;;;;;;;;5044926;28;20027;-52
2022/12/03 01:20:22;;;;;;;40.88;7.47;;;;;;;;;;5044077;28;20041;-47
2022/12/03 01:22:49;;;;;;;45.97;7.88;;;;;;;;;;5036627;28;20033;-49
2022/12/03 01:25:16;;;;;;;34.28;6.72;;;;;;;;;;5034192;28;20552;-49
2022/12/03 01:27:43;;;;;;;39.17;7.38;;;;;;;;;;5034677;28;20032;-49
2022/12/03 01:30:11;;;;;;;30.33;7.50;;;;;;;;;;5034663;28;20036;-49
2022/12/03 01:32:38;;;;;;;38.42;7.75;;;;;;;;;;5034295;28;20483;-47
2022/12/03 01:35:05;;;;;;;34.78;7.97;;;;;;;;;;5034962;28;20112;-47
2022/12/03 01:37:32;;;;;;;37.25;7.93;;;;;;;;;;5034642;28;20471;-48
2022/12/03 01:39:59;;;;;;;33.65;7.75;;;;;;;;;;5034544;28;20475;-48
2022/12/03 01:42:44;;;;;;;31.92;8.20;;;;;;;;;;5034173;28;20044;-50
2022/12/03 01:45:15;;;;;;;30.05;7.60;;;;;;;;;;5034441;28;20555;-49
2022/12/03 01:47:42;;;;;;;33.35;8.18;;;;;;;;;;5034457;28;20022;-48
2022/12/03 01:50:17;;;;;;;32.22;8.93;;;;;;;;;;5034399;28;20033;-46
2022/12/03 01:52:45;;;;;;;29.90;9.30;;;;;;;;;;5034159;28;20072;-48
2022/12/03 01:55:13;;;;;;;30.88;8.18;;;;;;;;;;5034157;28;20067;-48
2022/12/03 01:57:42;;;;;;;32.30;8.75;;;;;;;;;;5034060;28;20063;-48
2022/12/03 02:00:19;;;;;;;28.77;7.57;;;;;;;;;;5034213;28;20030;-48
2022/12/03 02:02:48;;;;;;;34.33;7.43;;;;;;;;;;5033859;28;20034;-50
2022/12/03 02:05:19;;;;;;;24.52;6.70;;;;;;;;;;5032958;28;20026;-49
2022/12/03 02:07:46;;;;;;;24.20;6.65;;;;;;;;;;5034129;28;20812;-51
2022/12/03 02:10:14;;;;;;;22.90;6.20;;;;;;;;;;5034094;28;20021;-48
2022/12/03 02:12:48;;;;;;;25.23;6.50;;;;;;;;;;5033945;28;20072;-51
2022/12/03 02:15:15;;;;;;;26.10;6.70;;;;;;;;;;5035645;28;20025;-49
2022/12/03 02:17:42;;;;;;;27.42;6.45;;;;;;;;;;5033601;28;20038;-49
2022/12/03 02:20:10;;;;;;;26.00;6.32;;;;;;;;;;5033576;28;20033;-47
2022/12/03 02:22:37;;;;;;;28.33;6.15;;;;;;;;;;5033355;28;20043;-49
2022/12/03 02:25:09;;;;;;;30.20;6.43;;;;;;;;;;5038029;28;20052;-47
2022/12/03 02:27:36;;;;;;;32.45;5.95;;;;;;;;;;5040761;28;20084;-47
2022/12/03 02:30:04;;;;;;;43.65;6.38;;;;;;;;;;5042553;28;20029;-50
2022/12/03 02:32:31;;;;;;;29.02;5.65;;;;;;;;;;5040265;28;20021;-49
2022/12/03 02:34:58;;;;;;;33.67;5.68;;;;;;;;;;5036261;28;20462;-50
2022/12/03 02:37:27;;;;;;;34.28;5.75;;;;;;;;;;5045210;28;20041;-47
2022/12/03 02:39:55;;;;;;;38.55;5.72;;;;;;;;;;5040823;28;20038;-49
2022/12/03 02:45:39;;;;;;;38.72;5.90;;;;;;;;;;5052234;28;20494;-49
2022/12/03 02:51:16;;;;;;;29.95;5.60;;;;;;;;;;5043949;28;20108;-52
2022/12/03 02:53:45;;;;;;;24.92;4.63;;;;;;;;;;5043281;28;20495;-47
2022/12/03 02:56:14;;;;;;;31.27;5.63;;;;;;;;;;5040726;28;20203;-47
2022/12/03 02:58:41;;;;;;;34.35;6.57;;;;;;;;;;5040007;28;20099;-49
2022/12/03 03:01:09;;;;;;;29.60;6.45;;;;;;;;;;5039975;28;20025;-52
2022/12/03 03:03:37;;;;;;;29.77;5.30;;;;;;;;;;5041596;28;20057;-52
2022/12/03 03:06:06;;;;;;;20.35;4.57;;;;;;;;;;5040085;28;20397;-50
2022/12/03 03:08:33;;;;;;;23.50;5.10;;;;;;;;;;5040097;28;20356;-50
2022/12/03 03:11:01;;;;;;;23.88;5.05;;;;;;;;;;5040204;28;20463;-52
2022/12/03 03:13:29;;;;;;;25.95;5.03;;;;;;;;;;5039928;28;20025;-49
2022/12/03 03:15:57;;;;;;;26.05;4.85;;;;;;;;;;5038146;28;20427;-51
2022/12/03 03:18:26;;;;;;;21.13;4.57;;;;;;;;;;5041431;28;20040;-53
2022/12/03 03:20:53;;;;;;;31.10;4.88;;;;;;;;;;5039052;28;20057;-53
2022/12/03 03:23:22;;;;;;;23.52;4.63;;;;;;;;;;5041291;28;20080;-48
2022/12/03 03:25:51;;;;;;;19.52;4.18;;;;;;;;;;5040349;28;20399;-54
2022/12/03 03:28:18;;;;;;;17.83;3.90;;;;;;;;;;5039533;28;20503;-51
2022/12/03 03:30:46;;;;;;;18.75;4.50;;;;;;;;;;5039961;28;20055;-56
2022/12/03 03:33:15;;;;;;;21.27;4.20;;;;;;;;;;5044162;28;20024;-53
2022/12/03 03:35:44;;;;;;;20.20;4.78;;;;;;;;;;5036961;28;20021;-53
2022/12/03 03:38:11;;;;;;;17.30;3.30;;;;;;;;;;5040650;28;20039;-49
2022/12/03 03:40:38;;;;;;;18.75;3.45;;;;;;;;;;5039594;28;20068;-53
2022/12/03 03:43:05;;;;;;;15.10;3.03;;;;;;;;;;5039630;28;20103;-48
2022/12/03 03:45:33;;;;;;;22.35;4.05;;;;;;;;;;5041321;28;20038;-51
2022/12/03 03:48:00;;;;;;;18.95;3.50;;;;;;;;;;5038286;28;20032;-49
2022/12/03 03:50:28;;;;;;;25.95;3.58;;;;;;;;;;5042438;28;20108;-50
2022/12/03 03:52:56;;;;;;;15.50;2.95;;;;;;;;;;5036939;28;20065;-51
2022/12/03 03:55:23;;;;;;;37.95;3.95;;;;;;;;;;5037846;28;20043;-56
2022/12/03 03:57:50;;;;;;;21.77;3.70;;;;;;;;;;5033713;28;20041;-51
2022/12/03 04:00:18;;;;;;;22.73;3.88;;;;;;;;;;5048501;28;20039;-49
2022/12/03 04:02:45;;;;;;;18.15;3.85;;;;;;;;;;5051731;28;20479;-50
2022/12/03 04:05:22;;;;;;;23.88;4.00;;;;;;;;;;5051404;28;20071;-49
2022/12/03 04:07:49;;;;;;;20.70;3.75;;;;;;;;;;5051796;28;20086;-50
2022/12/03 04:13:01;;;;;;;13.15;3.25;;;;;;;;;;5051490;28;20110;-49
2022/12/03 04:15:29;;;;;;;25.23;3.38;;;;;;;;;;5051720;28;20577;-50
2022/12/03 04:20:41;;;;;;;24.65;3.63;;;;;;;;;;5051633;28;20087;-49
2022/12/03 04:23:08;;;;;;;18.73;3.55;;;;;;;;;;5051602;28;20068;-49
2022/12/03 04:36:36;;;;;;;22.88;4.22;;;;;;;;;;5055704;28;20044;-49
2022/12/03 04:39:03;;;;;;;15.77;3.35;;;;;;;;;;5055645;28;20045;-48
2022/12/03 04:41:30;;;;;;;14.45;3.03;;;;;;;;;;5055326;28;20060;-48
2022/12/03 04:46:42;;;;;;;13.30;3.03;;;;;;;;;;5055448;28;20170;-50
2022/12/03 04:49:09;;;;;;;16.60;3.00;;;;;;;;;;5055443;28;20025;-48
2022/12/03 04:51:35;;;;;;;13.90;3.28;;;;;;;;;;5055317;28;20107;-49
2022/12/03 04:54:02;;;;;;;14.65;3.33;;;;;;;;;;5055191;28;20037;-51
2022/12/03 04:56:29;;;;;;;12.75;3.15;;;;;;;;;;5055156;28;20051;-48
2022/12/03 04:58:56;;;;;;;14.65;3.10;;;;;;;;;;5055227;28;20471;-48
2022/12/03 05:01:23;;;;;;;12.02;3.20;;;;;;;;;;5054968;28;20036;-49
2022/12/03 05:03:50;;;;;;;11.73;3.00;;;;;;;;;;5055127;28;20207;-48
2022/12/03 05:06:17;;;;;;;12.57;3.13;;;;;;;;;;5055058;28;20195;-50
2022/12/03 05:08:44;;;;;;;10.50;3.33;;;;;;;;;;5055083;28;20031;-48
2022/12/03 05:11:11;;;;;;;12.13;3.40;;;;;;;;;;5054854;28;20032;-49
2022/12/03 05:13:38;;;;;;;11.15;3.33;;;;;;;;;;5054888;28;20375;-49
2022/12/03 05:16:05;;;;;;;10.45;2.55;;;;;;;;;;5054929;28;20041;-49
2022/12/03 05:18:32;;;;;;;17.58;3.38;;;;;;;;;;5054927;28;20064;-50
2022/12/03 05:20:59;;;;;;;11.70;3.00;;;;;;;;;;5054775;28;20048;-49
2022/12/03 05:23:26;;;;;;;11.93;3.05;;;;;;;;;;5054690;28;20029;-49
2022/12/03 05:25:53;;;;;;;13.35;3.00;;;;;;;;;;5054781;28;20083;-48
2022/12/03 05:28:22;;;;;;;8.43;2.53;;;;;;;;;;5054638;28;20023;-48
2022/12/03 05:30:48;;;;;;;13.60;2.65;;;;;;;;;;5054499;28;20406;-49
2022/12/03 05:33:15;;;;;;;10.98;3.40;;;;;;;;;;5054614;28;20033;-49
2022/12/03 05:35:42;;;;;;;13.05;3.08;;;;;;;;;;5054409;28;20398;-48
2022/12/03 05:38:09;;;;;;;8.20;2.42;;;;;;;;;;5054180;28;20025;-50
2022/12/03 05:40:36;;;;;;;10.00;2.60;;;;;;;;;;5054348;28;20041;-51
2022/12/03 05:43:03;;;;;;;12.15;2.88;;;;;;;;;;5054361;28;20032;-51
2022/12/03 05:45:35;;;;;;;9.95;2.85;;;;;;;;;;5054398;28;20081;-51
2022/12/03 05:48:02;;;;;;;14.35;2.80;;;;;;;;;;5054369;28;20414;-48
2022/12/03 05:50:30;;;;;;;11.10;3.38;;;;;;;;;;5054098;28;20028;-49
2022/12/03 05:52:58;;;;;;;8.15;2.83;;;;;;;;;;5054280;28;20558;-50
2022/12/03 05:55:25;;;;;;;10.82;3.10;;;;;;;;;;5054253;28;20029;-50
2022/12/03 05:57:52;;;;;;;12.43;2.90;;;;;;;;;;5053991;28;20052;-49
2022/12/03 06:00:23;;;;;;;9.52;2.50;;;;;;;;;;5053918;28;20049;-51
2022/12/03 06:02:50;;;;;;;13.60;2.93;;;;;;;;;;5067205;28;20028;-51
2022/12/03 06:05:21;;;;;;;12.00;2.75;;;;;;;;;;5074100;28;20186;-48
2022/12/03 06:07:49;;;;;;;11.65;2.75;;;;;;;;;;5073939;28;20029;-49
2022/12/03 06:10:18;;;;;;;10.20;2.70;;;;;;;;;;5073959;28;20035;-48
2022/12/03 06:12:45;;;;;;;9.70;2.80;;;;;;;;;;5073855;28;20029;-48
2022/12/03 06:15:13;;;;;;;9.70;2.75;;;;;;;;;;5073780;28;20017;-49
2022/12/03 06:17:40;;;;;;;10.27;2.55;;;;;;;;;;5074062;28;20395;-49
2022/12/03 06:20:07;;;;;;;15.13;2.58;;;;;;;;;;5072569;28;20029;-48
2022/12/03 06:22:34;;;;;;;7.78;2.85;;;;;;;;;;5073474;28;20485;-50
2022/12/03 06:25:01;;;;;;;9.60;2.45;;;;;;;;;;5073568;28;20040;-48
2022/12/03 06:27:28;;;;;;;11.32;2.55;;;;;;;;;;5073563;28;20025;-49
2022/12/03 06:29:55;;;;;;;11.23;2.85;;;;;;;;;;5073530;28;20024;-49
2022/12/03 06:32:22;;;;;;;10.45;3.05;;;;;;;;;;5073347;28;20033;-48
2022/12/03 06:34:49;;;;;;;8.70;2.75;;;;;;;;;;5073345;28;20043;-48
2022/12/03 06:37:16;;;;;;;7.40;1.75;;;;;;;;;;5073261;28;20395;-50
2022/12/03 06:39:43;;;;;;;8.98;2.30;;;;;;;;;;5073324;28;20103;-49
2022/12/03 06:42:10;;;;;;;10.98;2.42;;;;;;;;;;5072973;28;20086;-49
2022/12/03 06:44:37;;;;;;;8.63;2.80;;;;;;;;;;5073270;28;20089;-51
2022/12/03 06:47:03;;;;;;;9.18;2.10;;;;;;;;;;5073205;28;20028;-49
2022/12/03 06:49:30;;;;;;;9.88;2.40;;;;;;;;;;5072951;28;20025;-49
2022/12/03 06:51:57;;;;;;;9.32;2.75;;;;;;;;;;5072553;28;20039;-49
2022/12/03 06:54:24;;;;;;;8.68;2.75;;;;;;;;;;5072987;28;20020;-48
2022/12/03 06:56:51;;;;;;;7.00;2.22;;;;;;;;;;5072723;28;20052;-50
2022/12/03 06:59:18;;;;;;;9.57;2.10;;;;;;;;;;5072923;28;20028;-49
2022/12/03 07:01:45;;;;;;;8.75;2.10;;;;;;;;;;5072779;28;20088;-50
2022/12/03 07:04:12;;;;;;;8.52;1.83;;;;;;;;;;5072846;28;20444;-49
2022/12/03 07:06:39;;;;;;;9.05;2.33;;;;;;;;;;5072788;28;20363;-49
2022/12/03 07:09:06;;;;;;;10.38;2.00;;;;;;;;;;5072724;28;20104;-49
2022/12/03 07:11:39;;;;;;;5.82;2.00;;;;;;;;;;5072679;28;20025;-49
2022/12/03 07:14:07;;;;;;;8.50;2.00;;;;;;;;;;5072661;28;20371;-49
2022/12/03 07:16:37;;;;;;;7.97;2.58;;;;;;;;;;5072676;28;20032;-48
2022/12/03 07:19:05;;;;;;;7.25;1.90;;;;;;;;;;5072564;28;20394;-48
2022/12/03 07:21:33;;;;;;;6.60;2.33;;;;;;;;;;5072166;28;20482;-51
2022/12/03 07:23:59;;;;;;;4.93;1.90;;;;;;;;;;5072765;28;20028;-48
2022/12/03 07:26:26;;;;;;;7.95;1.90;;;;;;;;;;5072714;28;20023;-48
2022/12/03 07:28:53;;;;;;;7.30;2.08;;;;;;;;;;5071345;28;20028;-48
2022/12/03 07:31:20;;;;;;;5.82;2.08;;;;;;;;;;5072515;28;20360;-49
2022/12/03 07:33:47;;;;;;;6.55;2.15;;;;;;;;;;5072505;28;20024;-49
2022/12/03 07:36:15;;;;;;;8.20;1.80;;;;;;;;;;5072614;28;20020;-48
2022/12/03 07:38:42;;;;;;;7.10;2.15;;;;;;;;;;5072516;28;20418;-48
2022/12/03 07:41:09;;;;;;;5.78;1.92;;;;;;;;;;5072346;28;20023;-49
2022/12/03 07:43:36;;;;;;;5.82;1.80;;;;;;;;;;5072334;28;20020;-49
2022/12/03 07:46:03;;;;;;;7.15;2.00;;;;;;;;;;5054268;28;20033;-51
2022/12/03 07:48:30;;;;;;;7.10;1.98;;;;;;;;;;5038277;28;20037;-48
2022/12/03 07:50:57;;;;;;;5.53;1.83;;;;;;;;;;5032364;28;20014;-47
2022/12/03 07:53:24;;;;;;;6.60;1.92;;;;;;;;;;5032222;28;20504;-48
2022/12/03 07:55:51;;;;;;;6.40;1.95;;;;;;;;;;5032114;28;20032;-47
2022/12/03 07:58:18;;;;;;;7.75;2.55;;;;;;;;;;5032178;28;20374;-47
2022/12/03 08:00:45;;;;;;;6.03;1.67;;;;;;;;;;5032176;28;20159;-47
2022/12/03 08:03:12;;;;;;;6.47;1.90;;;;;;;;;;5032729;28;20720;-48
2022/12/03 08:05:39;;;;;;;6.82;2.20;;;;;;;;;;5040908;28;20029;-48
2022/12/03 08:08:06;;;;;;;7.68;1.83;;;;;;;;;;5032160;28;20033;-46
2022/12/03 08:10:33;;;;;;;5.18;1.88;;;;;;;;;;5032048;28;20060;-50
2022/12/03 08:13:00;;;;;;;9.23;2.00;;;;;;;;;;5031895;28;20022;-49
2022/12/03 08:15:28;;;;;;;7.13;1.55;;;;;;;;;;5032070;28;20108;-47
2022/12/03 08:18:00;;;;;;;4.43;1.85;;;;;;;;;;5031906;28;20017;-50
2022/12/03 08:20:28;;;;;;;5.75;1.55;;;;;;;;;;5032024;28;20076;-48
2022/12/03 08:22:56;;;;;;;5.68;2.00;;;;;;;;;;5031790;28;20476;-48
2022/12/03 08:25:27;;;;;;;3.83;1.52;;;;;;;;;;5031901;28;20108;-47
2022/12/03 08:27:56;;;;;;;4.63;1.80;;;;;;;;;;5031947;28;20030;-46
2022/12/03 08:30:23;;;;;;;6.50;2.15;;;;;;;;;;5031798;28;20030;-48
2022/12/03 08:32:51;;;;;;;6.32;1.75;;;;;;;;;;5031705;28;20071;-48
2022/12/03 08:35:23;;;;;;;5.65;1.80;;;;;;;;;;5031804;28;20029;-46
2022/12/03 08:38:08;;;;;;;3.97;1.65;;;;;;;;;;5031724;28;20029;-50
2022/12/03 08:40:37;;;;;;;2.95;1.50;;;;;;;;;;5031848;28;20022;-48
2022/12/03 08:43:12;;;;;;;7.35;2.20;;;;;;;;;;5031768;28;20682;-47
2022/12/03 08:45:41;;;;;;;6.43;2.00;;;;;;;;;;5031779;28;20036;-51
2022/12/03 08:48:28;;;;;;;5.72;2.03;;;;;;;;;;5031631;28;20034;-48
2022/12/03 08:50:56;;;;;;;9.93;2.33;;;;;;;;;;5031432;28;20022;-47
2022/12/03 08:53:25;;;;;;;14.18;2.35;;;;;;;;;;5031709;28;20049;-47
2022/12/03 08:55:53;;;;;;;8.95;2.38;;;;;;;;;;5031351;28;20033;-47
2022/12/03 08:58:38;;;;;;;8.32;2.38;;;;;;;;;;5031608;28;20021;-48
2022/12/03 09:01:16;;;;;;;11.10;2.05;;;;;;;;;;5031480;28;20026;-48
2022/12/03 09:03:53;;;;;;;10.80;2.20;;;;;;;;;;5031554;28;20032;-47
2022/12/03 09:06:20;;;;;;;12.07;2.53;;;;;;;;;;5031560;28;20038;-47
2022/12/03 09:08:47;;;;;;;9.30;2.13;;;;;;;;;;5031481;28;20021;-49
2022/12/03 09:11:14;;;;;;;10.20;2.50;;;;;;;;;;5031384;28;20018;-50
2022/12/03 09:13:41;;;;;;;9.20;2.25;;;;;;;;;;5032570;28;20503;-47
2022/12/03 09:16:08;;;;;;;12.57;2.50;;;;;;;;;;5035147;28;20025;-48
2022/12/03 09:18:35;;;;;;;9.15;2.45;;;;;;;;;;5035166;28;20029;-47
2022/12/03 09:21:02;;;;;;;11.07;2.25;;;;;;;;;;5034884;28;20384;-49
2022/12/03 09:23:29;;;;;;;8.70;1.88;;;;;;;;;;5034906;28;20108;-48
2022/12/03 09:25:56;;;;;;;9.70;2.15;;;;;;;;;;5034982;28;20491;-49
2022/12/03 09:28:23;;;;;;;6.78;1.95;;;;;;;;;;5034916;28;20540;-49
2022/12/03 09:30:50;;;;;;;7.75;1.70;;;;;;;;;;5034825;28;20351;-50
2022/12/03 09:33:17;;;;;;;6.20;2.03;;;;;;;;;;5034749;28;20506;-50
2022/12/03 09:35:44;;;;;;;6.82;1.75;;;;;;;;;;5034782;28;20045;-48
2022/12/03 09:38:11;;;;;;;4.63;1.63;;;;;;;;;;5034738;28;20073;-50
2022/12/03 09:40:38;;;;;;;11.13;1.90;;;;;;;;;;5034720;28;20029;-49
2022/12/03 09:43:05;;;;;;;8.18;2.08;;;;;;;;;;5034564;28;20383;-48
2022/12/03 09:45:32;;;;;;;9.50;2.03;;;;;;;;;;5034480;28;20396;-49
2022/12/03 09:48:02;;;;;;;9.73;2.15;;;;;;;;;;5034483;28;20079;-50
2022/12/03 09:50:31;;;;;;;9.15;1.92;;;;;;;;;;5034308;28;20384;-48
2022/12/03 09:53:00;;;;;;;10.73;2.75;;;;;;;;;;5034446;28;20021;-50
2022/12/03 09:55:28;;;;;;;9.45;1.92;;;;;;;;;;5034371;28;20084;-49
2022/12/03 09:57:55;;;;;;;7.63;2.15;;;;;;;;;;5034140;28;20137;-49
2022/12/03 10:00:27;;;;;;;7.57;2.00;;;;;;;;;;5034227;28;20056;-49
2022/12/03 10:02:56;;;;;;;9.45;1.90;;;;;;;;;;5034083;28;20037;-48
2022/12/03 10:05:23;;;;;;;8.48;2.15;;;;;;;;;;5034145;28;20037;-48
2022/12/03 10:07:50;;;;;;;10.05;2.20;;;;;;;;;;5034156;28;20096;-49
2022/12/03 10:10:19;;;;;;;11.85;2.10;;;;;;;;;;5034017;28;20104;-49
2022/12/03 10:12:46;;;;;;;10.15;2.22;;;;;;;;;;5033934;28;20029;-48
2022/12/03 10:15:15;;;;;;;5.78;1.80;;;;;;;;;;5034001;28;20412;-50
2022/12/03 10:17:42;;;;;;;8.40;1.70;;;;;;;;;;5033938;28;20454;-50
2022/12/03 10:20:13;;;;;;;9.40;1.90;;;;;;;;;;5034153;28;20499;-48
2022/12/03 10:22:40;;;;;;;6.82;2.20;;;;;;;;;;5033615;28;20476;-50
2022/12/03 10:25:09;;;;;;;7.25;2.30;;;;;;;;;;5032810;28;20029;-49
2022/12/03 10:27:36;;;;;;;8.73;2.47;;;;;;;;;;5032401;28;20476;-48
2022/12/03 10:30:05;;;;;;;10.48;2.38;;;;;;;;;;5033359;28;20025;-49
2022/12/03 10:32:45;;;;;;;14.07;2.55;;;;;;;;;;5033578;28;20428;-49
2022/12/03 10:35:13;;;;;;;10.93;2.25;;;;;;;;;;5033504;28;20083;-48
2022/12/03 10:37:57;;;;;;;13.90;1.85;;;;;;;;;;5033591;28;20027;-47
2022/12/03 10:40:30;;;;;;;8.52;1.75;;;;;;;;;;5033556;28;20460;-48
2022/12/03 10:43:20;;;;;;;5.75;1.70;;;;;;;;;;5033320;28;20025;-47
2022/12/03 10:45:59;;;;;;;9.50;2.15;;;;;;;;;;5033488;28;20037;-48
2022/12/03 10:48:26;;;;;;;10.82;2.33;;;;;;;;;;5033321;28;20022;-48
2022/12/03 10:51:00;;;;;;;7.25;2.13;;;;;;;;;;5033178;28;20368;-47
2022/12/03 10:53:29;;;;;;;12.35;2.35;;;;;;;;;;5033478;28;20571;-49
2022/12/03 10:55:58;;;;;;;12.05;2.35;;;;;;;;;;5033074;28;20101;-49
2022/12/03 10:58:29;;;;;;;12.90;2.60;;;;;;;;;;5033206;28;20017;-48
2022/12/03 11:00:57;;;;;;;13.40;2.70;;;;;;;;;;5032991;28;20452;-47
2022/12/03 11:03:25;;;;;;;14.25;2.22;;;;;;;;;;5033058;28;20057;-47
2022/12/03 11:05:53;;;;;;;10.65;2.25;;;;;;;;;;5033030;28;20029;-46
2022/12/03 11:08:22;;;;;;;7.40;2.25;;;;;;;;;;5032989;28;20017;-48
2022/12/03 11:11:09;;;;;;;7.28;2.10;;;;;;;;;;5032824;28;20028;-48
2022/12/03 11:13:35;;;;;;;7.55;1.80;;;;;;;;;;5025861;28;20522;-46
2022/12/03 11:16:04;;;;;;;5.32;1.75;;;;;;;;;;5032851;28;20022;-48
2022/12/03 11:18:36;;;;;;;13.23;2.00;;;;;;;;;;5032837;28;20029;-49
2022/12/03 11:21:07;;;;;;;4.82;1.60;;;;;;;;;;5032663;28;20029;-48
2022/12/03 11:23:46;;;;;;;8.18;2.13;;;;;;;;;;5032652;28;20476;-47
2022/12/03 11:26:14;;;;;;;9.73;1.88;;;;;;;;;;5032783;28;20040;-46
2022/12/03 11:28:46;;;;;;;8.35;1.90;;;;;;;;;;5032624;28;20013;-49
2022/12/03 11:31:32;;;;;;;10.35;2.15;;;;;;;;;;5032504;28;20078;-48
2022/12/03 11:34:17;;;;;;;7.55;2.00;;;;;;;;;;5032514;28;20043;-47
2022/12/03 11:37:02;;;;;;;7.68;2.00;;;;;;;;;;5030893;28;20033;-50
2022/12/03 11:39:44;;;;;;;7.13;1.73;;;;;;;;;;5032387;28;20394;-50
2022/12/03 11:42:26;;;;;;;9.80;1.75;;;;;;;;;;5032231;28;20032;-49
2022/12/03 11:45:05;;;;;;;6.75;1.88;;;;;;;;;;5032426;28;20195;-47
2022/12/03 11:47:43;;;;;;;7.97;1.77;;;;;;;;;;5032318;28;20437;-47
2022/12/03 11:50:29;;;;;;;7.25;2.00;;;;;;;;;;5032325;28;20025;-47
2022/12/03 11:53:00;;;;;;;6.13;1.70;;;;;;;;;;5048356;28;20439;-49
2022/12/03 11:55:33;;;;;;;14.60;2.15;;;;;;;;;;5052023;28;20074;-49
2022/12/03 11:58:05;;;;;;;13.25;2.53;;;;;;;;;;5051766;28;20081;-49
2022/12/03 12:00:32;;;;;;;10.77;2.10;;;;;;;;;;5051930;28;20021;-48
2022/12/03 12:02:59;;;;;;;14.95;2.60;;;;;;;;;;5043734;28;20029;-47
2022/12/03 12:05:31;;;;;;;22.33;2.60;;;;;;;;;;5030517;28;20056;-52
2022/12/03 12:07:59;;;;;;;23.67;2.50;;;;;;;;;;5036983;28;20039;-53
2022/12/03 12:10:44;;;;;;;18.50;2.47;;;;;;;;;;5050952;28;20425;-56
2022/12/03 12:13:29;;;;;;;25.20;2.45;;;;;;;;;;5051770;28;20045;-53
2022/12/03 12:15:56;;;;;;;13.15;2.30;;;;;;;;;;5051126;28;20387;-57
2022/12/03 12:18:41;;;;;;;10.07;2.17;;;;;;;;;;5050600;28;20036;-52
2022/12/03 12:21:26;;;;;;;10.45;2.20;;;;;;;;;;5050890;28;20051;-49
2022/12/03 12:23:53;;;;;;;16.60;2.40;;;;;;;;;;5051566;28;20033;-51
2022/12/03 12:26:20;;;;;;;14.07;2.55;;;;;;;;;;5051151;28;20547;-54
2022/12/03 12:28:47;;;;;;;15.15;2.40;;;;;;;;;;5050710;28;20096;-53
2022/12/03 12:31:14;;;;;;;14.52;2.85;;;;;;;;;;5050907;28;20050;-56
2022/12/03 12:33:41;;;;;;;19.52;2.72;;;;;;;;;;5051224;28;20434;-54
2022/12/03 12:36:11;;;;;;;22.00;2.75;;;;;;;;;;5051597;28;20021;-51
2022/12/03 12:38:38;;;;;;;22.10;2.58;;;;;;;;;;5048905;28;20029;-50
2022/12/03 12:41:07;;;;;;;18.75;2.53;;;;;;;;;;5050767;28;20100;-52
2022/12/03 12:43:37;;;;;;;14.73;2.47;;;;;;;;;;5051286;28;20039;-50
2022/12/03 12:46:12;;;;;;;18.77;2.78;;;;;;;;;;5046601;28;20390;-51
2022/12/03 12:48:40;;;;;;;30.83;5.70;;;;;;;;;;5041429;28;20025;-52
2022/12/03 12:51:11;;;;;;;45.10;5.18;;;;;;;;;;5048872;28;20051;-52
2022/12/03 12:53:39;;;;;;;39.97;6.15;;;;;;;;;;5055165;28;20063;-52
2022/12/03 12:56:15;;;;;;;40.72;5.07;;;;;;;;;;5054919;28;20040;-50
2022/12/03 12:58:42;;;;;;;43.55;5.00;;;;;;;;;;5054929;28;20033;-51
2022/12/03 13:01:20;;;;;;;64.35;6.50;;;;;;;;;;5053833;28;20032;-49
2022/12/03 13:03:49;;;;;;;60.00;7.45;;;;;;;;;;5054954;28;20468;-49
2022/12/03 13:06:16;;;;;;;55.72;7.10;;;;;;;;;;5052493;28;20562;-52
2022/12/03 13:08:45;;;;;;;53.42;7.10;;;;;;;;;;5035055;28;20022;-50
2022/12/03 13:11:30;;;;;;;64.65;8.40;;;;;;;;;;5032839;28;20518;-50
2022/12/03 13:13:57;;;;;;;69.82;8.75;;;;;;;;;;5034343;28;20040;-55
2022/12/03 13:16:35;;;;;;;61.63;7.88;;;;;;;;;;5034695;28;20029;-51
2022/12/03 13:19:02;;;;;;;71.78;7.95;;;;;;;;;;5034624;28;20120;-50
2022/12/03 13:21:32;;;;;;;52.95;7.13;;;;;;;;;;5033062;28;20040;-51
2022/12/03 13:23:59;;;;;;;54.33;7.95;;;;;;;;;;5034576;28;20452;-54
2022/12/03 13:26:39;;;;;;;60.10;7.25;;;;;;;;;;5034693;28;20026;-53
2022/12/03 13:29:11;;;;;;;51.50;6.65;;;;;;;;;;5034618;28;20036;-53
2022/12/03 13:31:38;;;;;;;;;;;;;;;;;;5031779;28;20121;-51
2022/12/03 13:34:14;;;;;;;53.38;7.28;;;;;;;;;;5034220;28;19909;-53
2022/12/03 13:36:45;;;;;;;42.78;5.50;;;;;;;;;;5034217;28;20025;-51
2022/12/03 13:39:34;;;;;;;47.05;6.30;;;;;;;;;;5034159;28;20042;-52
2022/12/03 13:45:16;;;;;;;42.90;5.93;;;;;;;;;;5034569;28;20111;-51
2022/12/03 13:47:47;;;;;;;41.50;5.63;;;;;;;;;;5033053;28;20029;-52
2022/12/03 13:50:29;;;;;;;39.55;5.70;;;;;;;;;;5034271;28;20509;-50
2022/12/03 13:52:57;;;;;;;42.55;5.15;;;;;;;;;;5034076;28;20037;-51
2022/12/03 13:55:30;;;;;;;30.95;5.40;;;;;;;;;;5034297;28;20484;-57
2022/12/03 13:57:57;;;;;;;39.08;5.55;;;;;;;;;;5033710;28;20057;-50
2022/12/03 14:00:24;;;;;;;36.10;5.03;;;;;;;;;;5033991;28;20399;-51
2022/12/03 14:02:51;;;;;;;31.17;5.43;;;;;;;;;;5033647;28;20044;-55
2022/12/03 14:05:18;;;;;;;32.70;4.75;;;;;;;;;;5034005;28;20200;-53
2022/12/03 14:07:45;;;;;;;40.28;4.90;;;;;;;;;;5033698;28;20033;-52
2022/12/03 14:10:12;;;;;;;41.13;5.25;;;;;;;;;;5033964;28;20057;-51
2022/12/03 14:12:39;;;;;;;30.58;4.82;;;;;;;;;;5033960;28;20026;-55
2022/12/03 14:15:09;;;;;;;36.72;4.70;;;;;;;;;;5036163;28;20029;-52
2022/12/03 14:17:36;;;;;;;33.38;4.30;;;;;;;;;;5053555;28;20079;-49
2022/12/03 14:20:03;;;;;;;25.38;4.50;;;;;;;;;;5053658;28;20029;-52
2022/12/03 14:22:31;;;;;;;27.83;4.65;;;;;;;;;;5053403;28;20115;-50
2022/12/03 14:24:57;;;;;;;26.42;5.00;;;;;;;;;;5053477;28;20029;-51
2022/12/03 14:27:25;;;;;;;34.33;4.90;;;;;;;;;;5053590;28;20482;-56
2022/12/03 14:29:52;;;;;;;33.25;4.75;;;;;;;;;;5051787;28;20029;-53
2022/12/03 14:32:18;;;;;;;30.70;4.53;;;;;;;;;;5043087;28;20091;-56
2022/12/03 14:34:45;;;;;;;37.40;4.95;;;;;;;;;;5041909;28;20116;-51
2022/12/03 14:37:13;;;;;;;21.15;4.05;;;;;;;;;;5041221;28;20030;-54
2022/12/03 14:39:39;;;;;;;29.48;4.85;;;;;;;;;;5043137;28;20487;-53
2022/12/03 14:42:13;;;;;;;34.55;5.07;;;;;;;;;;5041699;28;20030;-50
2022/12/03 14:44:43;;;;;;;28.35;4.90;;;;;;;;;;5040406;28;20105;-49
2022/12/03 14:47:11;;;;;;;29.23;5.25;;;;;;;;;;5041284;28;20033;-48
2022/12/03 14:49:38;;;;;;;38.85;5.00;;;;;;;;;;5042723;28;20029;-53
2022/12/03 14:52:05;;;;;;;25.35;4.40;;;;;;;;;;5050678;28;20040;-53
2022/12/03 14:54:32;;;;;;;37.03;6.05;;;;;;;;;;5052964;28;20025;-50
2022/12/03 14:56:59;;;;;;;44.30;5.35;;;;;;;;;;5049329;28;20054;-52
2022/12/03 14:59:26;;;;;;;46.63;5.10;;;;;;;;;;5042063;28;20068;-55
2022/12/03 15:01:54;;;;;;;43.00;5.40;;;;;;;;;;5041980;28;20048;-52
2022/12/03 15:04:21;;;;;;;31.13;5.22;;;;;;;;;;5040585;28;20029;-52
2022/12/03 15:06:47;;;;;;;38.85;5.53;;;;;;;;;;5041558;28;20036;-48
2022/12/03 15:09:14;;;;;;;36.30;4.75;;;;;;;;;;5042071;28;20029;-52
2022/12/03 15:11:41;;;;;;;33.80;5.28;;;;;;;;;;5039876;28;20021;-49
2022/12/03 15:14:09;;;;;;;32.05;5.00;;;;;;;;;;5041663;28;20039;-51